createdAt,value
2018-04-10T00:00:21.609Z,17.70
2018-04-10T00:02:48.525Z,14.87
2018-04-10T00:05:15.500Z,15.60
2018-04-10T00:07:42.363Z,14.73
2018-04-10T00:10:09.250Z,15.67
2018-04-10T00:12:36.197Z,16.90
2018-04-10T00:15:03.237Z,16.13
2018-04-10T00:17:30.100Z,15.87
2018-04-10T00:19:57.106Z,16.37
2018-04-10T00:22:24.051Z,15.93
2018-04-10T00:24:50.936Z,16.67
2018-04-10T00:27:17.872Z,15.60
2018-04-10T00:29:44.747Z,21.93
2018-04-10T00:32:11.690Z,16.60
2018-04-10T00:34:38.629Z,15.43
2018-04-10T00:37:05.497Z,16.13
2018-04-10T00:39:32.441Z,20.83
2018-04-10T00:41:59.386Z,16.53
2018-04-10T00:44:26.278Z,16.47
2018-04-10T00:46:53.152Z,16.80
2018-04-10T00:49:20.078Z,16.00
2018-04-10T00:51:46.992Z,16.07
2018-04-10T00:54:13.934Z,18.03
2018-04-10T00:56:40.925Z,16.40
2018-04-10T00:59:07.792Z,18.90
2018-04-10T01:01:34.674Z,17.93
2018-04-10T01:04:01.673Z,16.13
2018-04-10T01:06:28.628Z,16.63
2018-04-10T01:08:55.513Z,16.17
2018-04-10T01:11:23.301Z,15.13
2018-04-10T01:13:50.185Z,17.90
2018-04-10T01:16:17.084Z,15.97
2018-04-10T01:18:44.176Z,16.90
2018-04-10T01:21:11.048Z,15.67
2018-04-10T01:23:38.662Z,16.53
2018-04-10T01:26:05.605Z,15.77
2018-04-10T01:28:32.566Z,14.80
2018-04-10T01:30:59.500Z,17.23
2018-04-10T01:33:26.364Z,16.20
2018-04-10T01:35:53.322Z,15.67
2018-04-10T01:38:20.253Z,16.60
2018-04-10T01:40:47.248Z,14.30
2018-04-10T01:43:14.859Z,16.30
2018-04-10T01:45:41.792Z,17.30
2018-04-10T01:48:08.733Z,16.73
2018-04-10T01:50:35.595Z,16.87
2018-04-10T01:53:02.502Z,15.47
2018-04-10T01:55:29.444Z,16.90
2018-04-10T01:57:56.319Z,14.73
2018-04-10T02:00:23.234Z,15.80
2018-04-10T02:02:50.180Z,15.63
2018-04-10T02:05:17.218Z,16.43
2018-04-10T02:07:44.141Z,13.67
2018-04-10T02:10:29.236Z,15.80
2018-04-10T02:12:56.111Z,19.83
2018-04-10T02:15:22.998Z,15.97
2018-04-10T02:17:49.963Z,16.00
2018-04-10T02:20:16.854Z,17.17
2018-04-10T02:22:43.724Z,16.20
2018-04-10T02:25:10.726Z,15.50
2018-04-10T02:27:37.712Z,15.27
2018-04-10T02:30:04.645Z,20.30
2018-04-10T02:32:31.594Z,15.80
2018-04-10T02:34:58.504Z,16.23
2018-04-10T02:37:25.397Z,17.83
2018-04-10T02:39:52.450Z,16.40
2018-04-10T02:42:19.464Z,23.00
2018-04-10T02:44:46.358Z,16.70
2018-04-10T02:47:13.313Z,15.63
2018-04-10T02:49:40.942Z,18.57
2018-04-10T02:52:07.902Z,15.33
2018-04-10T02:54:34.802Z,16.30
2018-04-10T02:57:01.773Z,18.00
2018-04-10T02:59:28.682Z,15.07
2018-04-10T03:01:55.649Z,16.77
2018-04-10T03:04:22.540Z,15.90
2018-04-10T03:06:49.484Z,15.53
2018-04-10T03:09:16.439Z,13.40
2018-04-10T03:11:44.156Z,16.97
2018-04-10T03:14:11.109Z,16.43
2018-04-10T03:16:38.070Z,15.30
2018-04-10T03:19:04.963Z,17.23
2018-04-10T03:21:31.841Z,13.97
2018-04-10T03:23:58.964Z,14.67
2018-04-10T03:26:25.856Z,15.90
2018-04-10T03:28:52.774Z,16.33
2018-04-10T03:31:19.764Z,16.23
2018-04-10T03:33:46.668Z,15.13
2018-04-10T03:36:13.568Z,17.40
2018-04-10T03:38:40.520Z,17.03
2018-04-10T03:41:08.160Z,16.17
2018-04-10T03:43:35.037Z,16.80
2018-04-10T03:46:01.982Z,16.67
2018-04-10T03:48:29.030Z,16.30
2018-04-10T03:50:55.920Z,17.13
2018-04-10T03:53:22.881Z,15.17
2018-04-10T03:55:49.786Z,15.70
2018-04-10T03:58:16.660Z,16.30
2018-04-10T04:00:43.596Z,20.50
2018-04-10T04:03:10.484Z,15.40
2018-04-10T04:05:37.408Z,15.10
2018-04-10T04:08:04.333Z,14.30
2018-04-10T04:10:31.262Z,14.03
2018-04-10T04:12:58.194Z,17.10
2018-04-10T04:15:25.064Z,22.50
2018-04-10T04:17:51.977Z,16.73
2018-04-10T04:20:30.997Z,15.97
2018-04-10T04:22:58.610Z,12.23
2018-04-10T04:25:25.549Z,13.67
2018-04-10T04:28:02.489Z,17.53
2018-04-10T04:30:29.701Z,16.60
2018-04-10T04:32:56.633Z,14.23
2018-04-10T04:35:23.568Z,16.17
2018-04-10T04:37:50.503Z,15.20
2018-04-10T04:40:17.568Z,15.40
2018-04-10T04:42:57.602Z,15.57
2018-04-10T04:45:37.823Z,14.80
2018-04-10T04:48:19.359Z,14.07
2018-04-10T04:50:58.262Z,15.97
2018-04-10T04:53:41.172Z,17.30
2018-04-10T04:56:18.116Z,17.47
2018-04-10T04:59:00.939Z,17.63
2018-04-10T05:01:43.527Z,19.57
2018-04-10T05:04:26.732Z,15.03
2018-04-10T05:07:00.701Z,17.17
2018-04-10T05:09:39.108Z,15.10
2018-04-10T05:12:22.197Z,16.23
2018-04-10T05:15:06.082Z,15.43
2018-04-10T05:20:31.344Z,14.83
2018-04-10T05:23:14.739Z,15.60
2018-04-10T05:25:57.555Z,15.80
2018-04-10T05:28:34.947Z,15.40
2018-04-10T05:34:02.262Z,18.30
2018-04-10T05:39:29.928Z,47.70
2018-04-10T05:42:13.569Z,57.40
2018-04-10T05:44:54.354Z,72.40
2018-04-10T05:47:35.936Z,69.93
2018-04-10T05:53:03.611Z,46.07
2018-04-10T05:55:48.664Z,40.23
2018-04-10T05:58:27.467Z,32.57
2018-04-10T06:01:06.147Z,30.63
2018-04-10T06:03:44.613Z,30.27
2018-04-10T06:09:09.468Z,27.50
2018-04-10T06:11:49.308Z,27.00
2018-04-10T06:14:33.767Z,24.17
2018-04-10T06:17:16.335Z,24.57
2018-04-10T06:19:52.050Z,26.47
2018-04-10T06:28:01.815Z,23.27
2018-04-10T06:30:43.188Z,20.63
2018-04-10T06:33:26.252Z,18.50
2018-04-10T06:36:08.936Z,18.70
2018-04-10T06:38:53.394Z,17.37
2018-04-10T06:41:30.391Z,19.87
2018-04-10T06:44:11.860Z,21.50
2018-04-10T06:46:53.656Z,21.93
2018-04-10T06:49:39.167Z,15.70
2018-04-10T06:52:21.614Z,15.93
2018-04-10T06:55:01.819Z,18.73
2018-04-10T06:57:43.717Z,19.77
2018-04-10T07:00:25.085Z,17.83
2018-04-10T07:03:07.120Z,16.27
2018-04-10T07:05:47.659Z,21.60
2018-04-10T07:08:28.153Z,16.23
2018-04-10T07:11:07.553Z,22.43
2018-04-10T07:13:46.167Z,17.93
2018-04-10T07:16:29.120Z,19.33
2018-04-10T07:19:09.896Z,18.70
2018-04-10T07:27:17.529Z,17.87
2018-04-10T07:29:57.504Z,18.87
2018-04-10T07:32:38.862Z,16.80
2018-04-10T07:35:21.413Z,18.60
2018-04-10T07:40:52.731Z,21.00
2018-04-10T07:43:32.474Z,21.83
2018-04-10T07:46:13.574Z,19.37
2018-04-10T07:48:55.917Z,21.00
2018-04-10T07:51:34.264Z,18.57
2018-04-10T07:54:14.148Z,19.30
2018-04-10T07:56:55.422Z,19.37
2018-04-10T07:59:36.689Z,21.40
2018-04-10T08:02:17.681Z,23.43
2018-04-10T08:07:46.232Z,25.63
2018-04-10T08:10:25.304Z,23.20
2018-04-10T08:13:07.447Z,23.00
2018-04-10T08:15:48.932Z,24.27
2018-04-10T08:18:31.298Z,25.40
2018-04-10T08:26:41.181Z,24.37
2018-04-10T08:29:22.003Z,20.73
2018-04-10T08:32:05.896Z,20.40
2018-04-10T08:34:48.335Z,21.33
2018-04-10T08:37:30.167Z,17.73
2018-04-10T08:42:56.086Z,20.90
2018-04-10T08:45:39.608Z,19.47
2018-04-10T08:48:22.403Z,20.20
2018-04-10T08:51:03.994Z,19.30
2018-04-10T08:53:44.979Z,21.10
2018-04-10T08:59:13.072Z,21.33
2018-04-10T09:01:55.267Z,20.63
2018-04-10T09:04:37.791Z,20.53
2018-04-10T09:07:20.919Z,20.70
2018-04-10T09:12:43.588Z,22.30
2018-04-10T09:15:24.771Z,25.37
2018-04-10T09:18:07.994Z,21.90
2018-04-10T09:20:48.952Z,26.00
2018-04-10T09:23:30.516Z,23.53
2018-04-10T09:26:13.979Z,21.87
2018-04-10T09:28:58.058Z,27.20
2018-04-10T09:31:35.962Z,25.30
2018-04-10T09:34:18.802Z,23.13
2018-04-10T09:39:46.676Z,22.80
2018-04-10T09:42:27.259Z,26.50
2018-04-10T09:45:09.861Z,24.43
2018-04-10T09:47:50.882Z,24.73
2018-04-10T09:50:31.440Z,22.67
2018-04-10T09:53:18.059Z,23.90
2018-04-10T09:58:44.038Z,28.67
2018-04-10T10:01:25.291Z,25.80
2018-04-10T10:04:09.826Z,25.90
2018-04-10T10:06:50.820Z,23.80
2018-04-10T10:09:32.459Z,23.73
2018-04-10T10:12:14.402Z,25.63
2018-04-10T10:14:57.383Z,24.47
2018-04-10T10:17:40.694Z,23.23
2018-04-10T10:20:23.683Z,28.50
2018-04-10T10:23:03.863Z,24.40
2018-04-10T10:25:43.629Z,23.17
2018-04-10T10:28:26.527Z,21.87
2018-04-10T10:33:54.408Z,21.07
2018-04-10T10:36:38.929Z,21.60
2018-04-10T10:39:20.884Z,19.80
2018-04-10T10:42:07.160Z,16.40
2018-04-10T10:44:46.461Z,13.33
2018-04-10T10:47:29.106Z,12.83
2018-04-10T10:50:09.343Z,11.13
2018-04-10T10:52:52.248Z,14.77
2018-04-10T10:55:32.594Z,12.70
2018-04-10T10:58:13.926Z,12.03
2018-04-10T11:00:54.028Z,10.37
2018-04-10T11:03:35.916Z,10.10
2018-04-10T11:06:17.946Z,12.73
2018-04-10T11:11:40.739Z,9.20
2018-04-10T11:14:22.903Z,14.13
2018-04-10T11:17:03.800Z,9.27
2018-04-10T11:19:47.571Z,8.77
2018-04-10T11:22:29.327Z,10.70
2018-04-10T11:25:11.213Z,9.57
2018-04-10T11:27:52.797Z,9.37
2018-04-10T11:30:32.869Z,9.57
2018-04-10T11:33:14.210Z,8.20
2018-04-10T11:35:56.361Z,8.10
2018-04-10T11:41:23.095Z,23.70
2018-04-10T11:44:05.330Z,17.27
2018-04-10T11:49:32.936Z,10.17
2018-04-10T11:52:14.229Z,11.13
2018-04-10T11:54:55.159Z,9.60
2018-04-10T12:00:16.416Z,6.70
2018-04-10T12:02:53.445Z,9.00
2018-04-10T12:05:34.416Z,6.87
2018-04-10T12:08:15.453Z,6.87
2018-04-10T12:10:42.980Z,5.43
2018-04-10T12:13:11.580Z,5.43
2018-04-10T12:15:38.469Z,4.17
2018-04-10T12:18:06.210Z,4.53
2018-04-10T12:20:41.230Z,3.90
2018-04-10T12:23:13.319Z,5.23
2018-04-10T12:28:25.665Z,3.73
2018-04-10T12:30:53.346Z,3.37
2018-04-10T12:33:20.305Z,3.80
2018-04-10T12:35:48.547Z,2.60
2018-04-10T12:38:22.943Z,3.33
2018-04-10T12:40:54.114Z,3.27
2018-04-10T12:43:22.095Z,4.60
2018-04-10T12:45:48.971Z,3.77
2018-04-10T12:48:15.911Z,3.60
2018-04-10T12:50:42.857Z,2.63
2018-04-10T12:53:09.860Z,4.80
2018-04-10T12:55:47.225Z,2.63
2018-04-10T12:58:20.710Z,4.23
2018-04-10T13:00:48.134Z,2.80
2018-04-10T13:03:15.491Z,4.17
2018-04-10T13:05:42.442Z,3.47
2018-04-10T13:08:10.199Z,3.20
2018-04-10T13:10:40.903Z,3.33
2018-04-10T13:13:08.915Z,2.53
2018-04-10T13:15:35.941Z,3.20
2018-04-10T13:18:12.014Z,3.23
2018-04-10T13:20:40.413Z,3.20
2018-04-10T13:23:07.332Z,3.37
2018-04-10T13:25:34.334Z,6.20
2018-04-10T13:28:01.215Z,3.97
2018-04-10T13:30:29.664Z,4.60
2018-04-10T13:32:59.236Z,4.10
2018-04-10T13:35:26.178Z,3.67
2018-04-10T13:37:53.109Z,3.37
2018-04-10T13:40:26.487Z,3.33
2018-04-10T13:43:00.085Z,3.30
2018-04-10T13:45:32.285Z,3.33
2018-04-10T13:48:06.556Z,4.60
2018-04-10T13:50:34.897Z,4.90
2018-04-10T13:53:01.797Z,3.33
2018-04-10T13:55:28.661Z,3.97
2018-04-10T13:58:03.585Z,3.93
2018-04-10T14:00:40.860Z,4.23
2018-04-10T14:03:08.578Z,4.27
2018-04-10T14:05:35.433Z,4.23
2018-04-10T14:08:02.366Z,5.67
2018-04-10T14:10:40.665Z,3.70
2018-04-10T14:13:20.742Z,3.70
2018-04-10T14:16:02.135Z,3.70
2018-04-10T14:18:44.912Z,4.53
2018-04-10T14:21:25.978Z,3.07
2018-04-10T14:24:05.681Z,3.23
2018-04-10T14:26:45.296Z,3.53
2018-04-10T14:29:25.769Z,3.40
2018-04-10T14:32:08.599Z,5.10
2018-04-10T14:34:49.042Z,3.80
2018-04-10T14:37:28.298Z,2.90
2018-04-10T14:40:10.008Z,2.97
2018-04-10T14:42:50.885Z,3.43
2018-04-10T14:45:31.363Z,2.93
2018-04-10T14:48:14.565Z,3.53
2018-04-10T14:50:55.932Z,2.93
2018-04-10T14:53:36.546Z,3.13
2018-04-10T14:56:16.995Z,4.73
2018-04-10T14:58:58.792Z,2.73
2018-04-10T15:01:41.080Z,2.93
2018-04-10T15:04:21.069Z,2.93
2018-04-10T15:07:01.292Z,8.53
2018-04-10T15:09:43.053Z,4.47
2018-04-10T15:12:22.740Z,3.53
2018-04-10T15:15:05.685Z,4.97
2018-04-10T15:17:44.997Z,3.20
2018-04-10T15:20:25.468Z,2.90
2018-04-10T15:23:07.328Z,4.27
2018-04-10T15:25:44.862Z,2.53
2018-04-10T15:31:06.424Z,4.97
2018-04-10T15:33:46.550Z,2.90
2018-04-10T15:36:24.056Z,2.23
2018-04-10T15:38:58.246Z,3.10
2018-04-10T15:41:38.067Z,2.87
2018-04-10T15:44:19.355Z,3.40
2018-04-10T15:46:59.764Z,4.07
2018-04-10T15:49:36.194Z,3.17
2018-04-10T15:52:17.740Z,5.10
2018-04-10T15:55:00.332Z,2.77
2018-04-10T15:57:43.192Z,2.53
2018-04-10T16:00:24.451Z,5.33
2018-04-10T16:03:06.243Z,3.10
2018-04-10T16:05:48.950Z,3.50
2018-04-10T16:08:31.117Z,3.10
2018-04-10T16:11:12.202Z,3.90
2018-04-10T16:13:53.685Z,3.57
2018-04-10T16:16:34.365Z,3.80
2018-04-10T16:19:15.460Z,4.20
2018-04-10T16:24:42.654Z,3.50
2018-04-10T16:27:23.130Z,3.57
2018-04-10T16:30:01.695Z,3.53
2018-04-10T16:32:46.432Z,4.73
2018-04-10T16:35:26.163Z,3.20
2018-04-10T16:38:03.584Z,2.77
2018-04-10T16:40:41.215Z,3.93
2018-04-10T16:43:22.102Z,3.10
2018-04-10T16:46:03.725Z,2.57
2018-04-10T16:48:43.862Z,4.90
2018-04-10T16:51:24.757Z,4.10
2018-04-10T16:54:05.670Z,4.20
2018-04-10T16:56:46.647Z,2.37
2018-04-10T16:59:15.797Z,2.20
2018-04-10T17:01:42.760Z,5.03
2018-04-10T17:04:09.628Z,4.27
2018-04-10T17:06:36.513Z,6.30
2018-04-10T17:09:03.627Z,5.20
2018-04-10T17:11:30.568Z,5.77
2018-04-10T17:13:57.551Z,7.87
2018-04-10T17:16:24.499Z,10.40
2018-04-10T17:18:51.440Z,4.30
2018-04-10T17:21:18.361Z,6.50
2018-04-10T17:23:45.367Z,4.83
2018-04-10T17:26:12.369Z,4.67
2018-04-10T17:28:40.113Z,6.43
2018-04-10T17:31:07.029Z,5.77
2018-04-10T17:33:34.846Z,8.70
2018-04-10T17:36:02.580Z,6.20
2018-04-10T17:38:29.633Z,4.43
2018-04-10T17:40:56.604Z,9.00
2018-04-10T17:43:23.564Z,6.67
2018-04-10T17:45:51.300Z,6.60
2018-04-10T17:48:18.234Z,6.37
2018-04-10T17:50:45.199Z,5.03
2018-04-10T17:53:12.127Z,5.77
2018-04-10T17:55:39.066Z,5.00
2018-04-10T17:58:05.941Z,2.70
2018-04-10T18:00:32.857Z,4.63
2018-04-10T18:02:59.798Z,3.93
2018-04-10T18:05:26.702Z,3.40
2018-04-10T18:07:53.640Z,5.63
2018-04-10T18:10:21.275Z,5.60
2018-04-10T18:12:48.233Z,3.03
2018-04-10T18:15:15.102Z,2.97
2018-04-10T18:17:42.112Z,6.07
2018-04-10T18:20:09.110Z,4.60
2018-04-10T18:22:36.038Z,4.13
2018-04-10T18:25:02.954Z,3.33
2018-04-10T18:27:29.895Z,2.77
2018-04-10T18:29:56.937Z,2.80
2018-04-10T18:32:23.807Z,2.50
2018-04-10T18:34:50.673Z,3.93
2018-04-10T18:37:17.633Z,3.90
2018-04-10T18:39:44.604Z,2.30
2018-04-10T18:42:11.486Z,3.30
2018-04-10T18:44:38.425Z,2.13
2018-04-10T18:47:05.301Z,4.27
2018-04-10T18:49:32.273Z,4.83
2018-04-10T18:51:59.165Z,3.83
2018-04-10T18:54:26.113Z,2.30
2018-04-10T18:56:53.044Z,1.53
2018-04-10T18:59:20.008Z,1.77
2018-04-10T19:01:46.897Z,1.40
2018-04-10T19:04:13.865Z,2.70
2018-04-10T19:06:40.844Z,1.50
2018-04-10T19:09:07.863Z,3.27
2018-04-10T19:11:34.798Z,3.30
2018-04-10T19:14:01.767Z,2.43
2018-04-10T19:16:28.646Z,6.37
2018-04-10T19:18:55.645Z,1.93
2018-04-10T19:21:22.579Z,1.70
2018-04-10T19:23:49.544Z,6.00
2018-04-10T19:26:16.413Z,2.13
2018-04-10T19:28:43.352Z,1.70
2018-04-10T19:31:10.312Z,1.87
2018-04-10T19:33:38.040Z,1.30
2018-04-10T19:36:04.962Z,2.30
2018-04-10T19:38:31.907Z,4.90
2018-04-10T19:40:58.793Z,2.00
2018-04-10T19:43:25.750Z,3.00
2018-04-10T19:45:52.634Z,1.70
2018-04-10T19:48:19.591Z,2.50
2018-04-10T19:50:46.527Z,1.20
2018-04-10T19:53:13.475Z,1.43
2018-04-10T19:55:40.360Z,1.87
2018-04-10T19:58:07.353Z,2.30
2018-04-10T20:00:34.304Z,1.83
2018-04-10T20:03:01.220Z,1.40
2018-04-10T20:05:28.924Z,1.77
2018-04-10T20:07:55.872Z,1.57
2018-04-10T20:10:22.803Z,1.43
2018-04-10T20:12:49.673Z,1.73
2018-04-10T20:15:16.613Z,1.53
2018-04-10T20:17:43.466Z,3.40
2018-04-10T20:20:10.525Z,1.23
2018-04-10T20:22:37.505Z,1.43
2018-04-10T20:25:04.373Z,1.10
2018-04-10T20:27:31.320Z,0.97
2018-04-10T20:29:58.274Z,2.13
2018-04-10T20:32:25.157Z,1.43
2018-04-10T20:34:52.114Z,1.40
2018-04-10T20:37:18.980Z,0.93
2018-04-10T20:39:46.681Z,1.10
2018-04-10T20:42:13.564Z,2.30
2018-04-10T20:44:40.477Z,1.77
2018-04-10T20:47:07.497Z,1.30
2018-04-10T20:49:35.174Z,3.53
2018-04-10T20:52:02.140Z,2.30
2018-04-10T20:54:28.997Z,1.63
2018-04-10T20:56:55.936Z,1.90
2018-04-10T20:59:22.806Z,1.50
2018-04-10T21:01:49.747Z,2.17
2018-04-10T21:04:16.621Z,2.30
2018-04-10T21:06:43.563Z,2.20
2018-04-10T21:09:10.505Z,5.37
2018-04-10T21:11:37.500Z,1.90
2018-04-10T21:14:04.489Z,2.20
2018-04-10T21:16:31.368Z,1.50
2018-04-10T21:18:58.243Z,1.97
2018-04-10T21:21:25.172Z,3.67
2018-04-10T21:23:52.033Z,2.10
2018-04-10T21:26:18.960Z,5.60
2018-04-10T21:28:45.878Z,3.07
2018-04-10T21:31:12.816Z,2.33
2018-04-10T21:33:39.756Z,3.40
2018-04-10T21:36:06.620Z,2.43
2018-04-10T21:38:33.546Z,1.90
2018-04-10T21:41:02.350Z,2.37
2018-04-10T21:43:30.787Z,1.73
2018-04-10T21:45:57.727Z,3.63
2018-04-10T21:48:24.663Z,2.00
2018-04-10T21:50:51.626Z,2.63
2018-04-10T21:53:18.503Z,3.77
2018-04-10T21:55:46.192Z,2.03
2018-04-10T21:58:13.122Z,3.07
2018-04-10T22:00:40.834Z,2.50
2018-04-10T22:03:08.653Z,1.67
2018-04-10T22:05:36.326Z,2.70
2018-04-10T22:08:03.274Z,2.53
2018-04-10T22:10:30.203Z,4.27
2018-04-10T22:12:57.877Z,2.33
2018-04-10T22:15:25.569Z,3.27
2018-04-10T22:17:52.528Z,4.30
2018-04-10T22:20:19.512Z,4.37
2018-04-10T22:22:46.454Z,3.37
2018-04-10T22:25:13.422Z,3.10
2018-04-10T22:27:41.057Z,4.10
2018-04-10T22:30:08.051Z,3.80
2018-04-10T22:32:34.902Z,5.20
2018-04-10T22:35:01.960Z,3.90
2018-04-10T22:37:28.882Z,3.03
2018-04-10T22:39:55.831Z,3.73
2018-04-10T22:42:22.752Z,5.37
2018-04-10T22:44:49.597Z,5.17
2018-04-10T22:47:16.597Z,4.43
2018-04-10T22:49:43.465Z,4.37
2018-04-10T22:52:10.403Z,5.83
2018-04-10T22:54:37.418Z,6.30
2018-04-10T22:57:04.288Z,3.63
2018-04-10T22:59:31.238Z,5.10
2018-04-10T23:01:58.103Z,2.83
2018-04-10T23:04:25.794Z,4.50
2018-04-10T23:06:52.661Z,6.00
2018-04-10T23:09:19.617Z,7.00
2018-04-10T23:11:46.558Z,3.30
2018-04-10T23:14:13.430Z,4.30
2018-04-10T23:16:40.357Z,4.33
2018-04-10T23:19:07.362Z,3.10
2018-04-10T23:21:34.279Z,5.57
2018-04-10T23:24:01.198Z,3.47
2018-04-10T23:26:28.061Z,3.40
2018-04-10T23:28:55.045Z,3.40
2018-04-10T23:31:21.902Z,3.73
2018-04-10T23:33:49.662Z,4.80
2018-04-10T23:36:16.558Z,3.63
2018-04-10T23:38:43.525Z,4.87
2018-04-10T23:41:10.391Z,4.50
2018-04-10T23:43:37.379Z,4.70
2018-04-10T23:46:04.240Z,3.77
2018-04-10T23:48:31.238Z,3.50
2018-04-10T23:50:58.108Z,5.00
2018-04-10T23:53:25.007Z,4.80
2018-04-10T23:55:51.961Z,5.57
2018-04-10T23:58:18.810Z,5.63
